createdAt,value
2022-07-29T00:01:21.240Z,2.08
2022-07-29T00:03:49.704Z,2.50
2022-07-29T00:06:18.342Z,2.33
2022-07-29T00:08:46.680Z,2.42
2022-07-29T00:11:15.041Z,1.88
2022-07-29T00:13:45.381Z,2.15
2022-07-29T00:16:17.424Z,2.38
2022-07-29T00:18:45.362Z,2.17
2022-07-29T00:21:13.518Z,1.30
2022-07-29T00:23:41.876Z,1.70
2022-07-29T00:26:10.149Z,2.17
2022-07-29T00:28:37.855Z,1.50
2022-07-29T00:31:06.545Z,1.60
2022-07-29T00:33:34.565Z,1.60
2022-07-29T00:36:03.404Z,2.17
2022-07-29T00:38:31.229Z,1.83
2022-07-29T00:40:59.592Z,1.60
2022-07-29T00:43:28.228Z,2.08
2022-07-29T00:45:56.656Z,2.33
2022-07-29T00:48:24.785Z,1.90
2022-07-29T00:50:52.702Z,1.42
2022-07-29T00:53:21.525Z,2.20
2022-07-29T00:55:49.924Z,1.80
2022-07-29T00:58:20.921Z,2.13
2022-07-29T01:00:48.916Z,1.67
2022-07-29T01:03:17.521Z,1.98
2022-07-29T01:05:49.686Z,1.25
2022-07-29T01:08:20.430Z,2.17
2022-07-29T01:10:49.305Z,2.22
2022-07-29T01:13:18.785Z,1.85
2022-07-29T01:15:52.861Z,1.80
2022-07-29T01:18:40.832Z,1.88
2022-07-29T01:21:17.672Z,1.77
2022-07-29T01:24:10.023Z,2.47
2022-07-29T01:27:15.727Z,1.90
2022-07-29T01:30:05.277Z,1.88
2022-07-29T01:32:38.494Z,1.67
2022-07-29T01:35:16.771Z,2.00
2022-07-29T01:37:50.240Z,2.58
2022-07-29T01:42:55.505Z,1.77
2022-07-29T01:45:43.181Z,2.30
2022-07-29T01:48:32.695Z,2.22
2022-07-29T01:51:09.291Z,2.13
2022-07-29T01:53:43.825Z,2.13
2022-07-29T01:56:15.016Z,1.92
2022-07-29T01:58:45.156Z,2.47
2022-07-29T02:01:15.073Z,2.25
2022-07-29T02:03:46.065Z,2.60
2022-07-29T02:06:20.731Z,2.17
2022-07-29T02:08:51.423Z,2.80
2022-07-29T02:11:19.849Z,2.90
2022-07-29T02:13:50.377Z,2.53
2022-07-29T02:16:23.393Z,3.03
2022-07-29T02:18:53.921Z,3.35
2022-07-29T02:21:26.304Z,2.80
2022-07-29T02:23:55.987Z,3.00
2022-07-29T02:26:27.233Z,3.30
2022-07-29T02:28:58.448Z,2.92
2022-07-29T02:31:31.492Z,3.08
2022-07-29T02:34:01.762Z,3.30
2022-07-29T02:36:31.803Z,3.33
2022-07-29T02:39:01.835Z,3.20
2022-07-29T02:41:41.691Z,3.72
2022-07-29T02:44:17.897Z,3.20
2022-07-29T02:46:53.294Z,3.42
2022-07-29T02:49:24.800Z,3.90
2022-07-29T02:51:56.808Z,4.15
2022-07-29T02:54:38.649Z,3.20
2022-07-29T02:57:13.255Z,3.88
2022-07-29T02:59:43.787Z,3.72
2022-07-29T03:02:15.008Z,3.25
2022-07-29T03:04:45.229Z,3.28
2022-07-29T03:07:19.509Z,3.80
2022-07-29T03:09:47.559Z,3.30
2022-07-29T03:12:16.449Z,3.20
2022-07-29T03:14:45.797Z,3.97
2022-07-29T03:17:14.950Z,3.67
2022-07-29T03:19:44.007Z,4.18
2022-07-29T03:22:12.109Z,3.47
2022-07-29T03:24:40.239Z,3.53
2022-07-29T03:27:08.483Z,3.03
2022-07-29T03:29:36.402Z,4.20
2022-07-29T03:32:08.182Z,3.78
2022-07-29T03:34:39.043Z,3.55
2022-07-29T03:37:07.563Z,3.33
2022-07-29T03:39:41.986Z,3.50
2022-07-29T03:42:15.009Z,3.40
2022-07-29T03:44:46.974Z,3.97
2022-07-29T03:47:16.692Z,3.10
2022-07-29T03:49:49.773Z,3.35
2022-07-29T03:52:18.505Z,3.88
2022-07-29T03:54:46.876Z,2.53
2022-07-29T03:57:16.286Z,3.00
2022-07-29T03:59:45.242Z,3.17
2022-07-29T04:02:14.924Z,3.15
2022-07-29T04:04:45.512Z,3.13
2022-07-29T04:07:14.824Z,3.65
2022-07-29T04:09:43.269Z,3.47
2022-07-29T04:12:12.303Z,3.60
2022-07-29T04:14:40.111Z,3.22
2022-07-29T04:17:09.049Z,3.75
2022-07-29T04:19:36.871Z,3.42
2022-07-29T04:22:05.070Z,3.35
2022-07-29T04:24:33.678Z,4.22
2022-07-29T04:27:01.420Z,3.05
2022-07-29T04:29:29.517Z,4.18
2022-07-29T04:31:57.345Z,4.28
2022-07-29T04:34:28.288Z,4.53
2022-07-29T04:36:56.985Z,4.90
2022-07-29T04:39:25.727Z,4.63
2022-07-29T04:41:57.431Z,4.23
2022-07-29T04:44:28.599Z,4.65
2022-07-29T04:46:57.936Z,4.75
2022-07-29T04:49:25.984Z,4.68
2022-07-29T04:51:54.108Z,4.82
2022-07-29T04:54:21.855Z,5.45
2022-07-29T04:56:50.376Z,6.35
2022-07-29T04:59:18.348Z,6.07
2022-07-29T05:01:46.182Z,6.35
2022-07-29T05:04:14.275Z,7.40
2022-07-29T05:06:42.920Z,7.00
2022-07-29T05:09:11.247Z,5.85
2022-07-29T05:11:39.452Z,6.47
2022-07-29T05:14:07.745Z,5.78
2022-07-29T05:16:35.622Z,5.25
2022-07-29T05:19:03.752Z,4.57
2022-07-29T05:21:32.380Z,4.45
2022-07-29T05:24:00.526Z,4.82
2022-07-29T05:26:28.505Z,4.25
2022-07-29T05:28:56.347Z,3.97
2022-07-29T05:31:24.738Z,3.72
2022-07-29T05:33:52.524Z,3.55
2022-07-29T05:36:20.463Z,4.03
2022-07-29T05:38:48.202Z,3.70
2022-07-29T05:41:16.419Z,5.07
2022-07-29T05:43:44.157Z,3.92
2022-07-29T05:46:12.740Z,4.70
2022-07-29T05:48:41.003Z,3.95
2022-07-29T05:51:08.727Z,4.80
2022-07-29T05:53:36.748Z,3.25
2022-07-29T05:56:06.510Z,3.13
2022-07-29T05:58:34.499Z,3.60
2022-07-29T06:01:03.343Z,3.35
2022-07-29T06:03:31.609Z,3.72
2022-07-29T06:06:01.495Z,3.85
2022-07-29T06:08:30.268Z,4.35
2022-07-29T06:10:59.145Z,4.68
2022-07-29T06:13:27.361Z,4.30
2022-07-29T06:15:55.210Z,3.38
2022-07-29T06:18:24.958Z,6.20
2022-07-29T06:20:54.575Z,5.32
2022-07-29T06:23:22.468Z,6.93
2022-07-29T06:25:50.705Z,6.55
2022-07-29T06:28:18.484Z,5.85
2022-07-29T06:30:46.420Z,4.80
2022-07-29T06:33:19.811Z,4.05
2022-07-29T06:35:53.180Z,4.28
2022-07-29T06:38:30.206Z,3.60
2022-07-29T06:41:03.891Z,4.57
2022-07-29T06:43:50.592Z,4.75
2022-07-29T06:46:21.806Z,4.03
2022-07-29T06:48:50.267Z,3.50
2022-07-29T06:51:22.390Z,4.30
2022-07-29T06:56:38.429Z,4.47
2022-07-29T06:59:09.979Z,4.15
2022-07-29T07:01:39.254Z,4.70
2022-07-29T07:04:18.567Z,5.53
2022-07-29T07:06:51.885Z,4.68
2022-07-29T07:09:20.053Z,4.00
2022-07-29T07:11:49.498Z,3.72
2022-07-29T07:14:18.810Z,3.53
2022-07-29T07:16:46.761Z,4.15
2022-07-29T07:19:15.938Z,4.25
2022-07-29T07:21:43.929Z,3.75
2022-07-29T07:24:13.322Z,3.13
2022-07-29T07:26:41.538Z,3.88
2022-07-29T07:29:09.282Z,3.00
2022-07-29T07:31:38.481Z,4.63
2022-07-29T07:34:06.404Z,4.00
2022-07-29T07:36:34.554Z,3.58
2022-07-29T07:39:03.455Z,3.30
2022-07-29T07:41:32.641Z,3.97
2022-07-29T07:44:00.485Z,3.80
2022-07-29T07:46:28.413Z,3.78
2022-07-29T07:48:56.109Z,3.35
2022-07-29T07:51:23.832Z,2.78
2022-07-29T07:53:51.611Z,2.50
2022-07-29T07:56:19.599Z,3.00
2022-07-29T07:58:47.695Z,3.88
2022-07-29T08:01:18.836Z,2.63
2022-07-29T08:03:46.910Z,2.38
2022-07-29T08:06:14.791Z,3.10
2022-07-29T08:08:42.862Z,3.47
2022-07-29T08:11:11.188Z,3.50
2022-07-29T08:13:39.774Z,4.65
2022-07-29T08:16:16.309Z,3.40
2022-07-29T08:18:46.862Z,4.78
2022-07-29T08:21:16.509Z,5.47
2022-07-29T08:23:57.621Z,4.55
2022-07-29T08:26:26.173Z,4.35
2022-07-29T08:28:54.604Z,5.38
2022-07-29T08:31:22.419Z,4.13
2022-07-29T08:33:50.846Z,3.90
2022-07-29T08:36:18.950Z,4.03
2022-07-29T08:38:47.471Z,3.95
2022-07-29T08:41:15.945Z,3.40
2022-07-29T08:43:43.823Z,3.30
2022-07-29T08:46:12.088Z,3.45
2022-07-29T08:48:40.407Z,3.05
2022-07-29T08:51:09.763Z,3.13
2022-07-29T08:53:39.200Z,4.18
2022-07-29T08:56:07.638Z,3.63
2022-07-29T08:58:36.847Z,2.97
2022-07-29T09:01:05.050Z,3.33
2022-07-29T09:03:38.626Z,3.30
2022-07-29T09:06:07.183Z,3.33
2022-07-29T09:08:35.726Z,3.70
2022-07-29T09:11:05.292Z,4.05
2022-07-29T09:13:33.747Z,3.88
2022-07-29T09:16:07.043Z,3.38
2022-07-29T09:18:42.944Z,3.45
2022-07-29T09:21:33.934Z,3.35
2022-07-29T09:24:14.888Z,3.70
2022-07-29T09:26:45.326Z,3.20
2022-07-29T09:29:21.272Z,3.08
2022-07-29T09:31:52.097Z,3.25
2022-07-29T09:34:25.233Z,2.83
2022-07-29T09:39:35.273Z,3.88
2022-07-29T09:42:06.270Z,3.55
2022-07-29T09:44:49.294Z,2.92
2022-07-29T09:47:22.825Z,3.00
2022-07-29T09:49:55.508Z,2.75
2022-07-29T09:52:23.730Z,3.97
2022-07-29T09:54:51.819Z,4.18
2022-07-29T09:57:38.042Z,2.63
2022-07-29T10:00:08.261Z,2.75
2022-07-29T10:02:45.219Z,3.40
2022-07-29T10:05:23.747Z,3.33
2022-07-29T10:07:57.699Z,2.90
2022-07-29T10:10:29.230Z,3.92
2022-07-29T10:13:01.791Z,3.40
2022-07-29T10:15:44.993Z,3.28
2022-07-29T10:18:15.615Z,3.15
2022-07-29T10:20:43.743Z,3.13
2022-07-29T10:23:12.349Z,3.03
2022-07-29T10:25:45.680Z,3.42
2022-07-29T10:28:16.809Z,3.58
2022-07-29T10:30:47.254Z,2.70
2022-07-29T10:33:38.442Z,2.95
2022-07-29T10:36:25.254Z,2.83
2022-07-29T10:38:55.174Z,4.88
2022-07-29T10:41:57.565Z,3.28
2022-07-29T10:44:28.370Z,3.22
2022-07-29T10:46:56.742Z,3.25
2022-07-29T10:49:30.375Z,3.50
2022-07-29T10:52:10.655Z,2.92
2022-07-29T10:54:42.567Z,2.95
2022-07-29T10:57:52.565Z,2.60
2022-07-29T11:00:17.331Z,3.05
2022-07-29T11:02:54.398Z,3.40
2022-07-29T11:05:24.646Z,3.00
2022-07-29T11:08:20.500Z,2.67
2022-07-29T11:10:50.361Z,2.80
2022-07-29T11:13:56.924Z,2.60
2022-07-29T11:16:26.655Z,3.13
2022-07-29T11:19:26.477Z,3.20
2022-07-29T11:21:58.959Z,3.03
2022-07-29T11:24:30.108Z,2.63
2022-07-29T11:27:23.398Z,3.40
2022-07-29T11:29:58.887Z,3.05
2022-07-29T11:32:38.784Z,2.58
2022-07-29T11:35:36.928Z,3.35
2022-07-29T11:38:31.777Z,2.63
2022-07-29T11:41:18.243Z,2.85
2022-07-29T11:43:58.423Z,2.90
2022-07-29T11:49:45.596Z,2.80
2022-07-29T11:52:16.201Z,2.70
2022-07-29T11:54:57.753Z,2.42
2022-07-29T11:57:36.675Z,2.30
2022-07-29T12:00:12.539Z,2.67
2022-07-29T12:02:48.092Z,2.25
2022-07-29T12:07:02.023Z,2.42
2022-07-29T12:07:02.572Z,2.83
2022-07-29T12:08:08.729Z,3.00
2022-07-29T12:10:42.803Z,2.20
2022-07-29T12:13:11.632Z,3.05
2022-07-29T12:15:47.248Z,2.70
2022-07-29T12:18:24.347Z,3.10
2022-07-29T12:21:03.805Z,2.60
2022-07-29T12:23:35.100Z,2.47
2022-07-29T12:26:10.728Z,2.60
2022-07-29T12:28:39.968Z,2.78
2022-07-29T12:31:41.971Z,2.88
2022-07-29T12:34:03.574Z,2.60
2022-07-29T12:36:31.606Z,2.25
2022-07-29T12:38:59.475Z,2.58
2022-07-29T12:41:30.071Z,2.20
2022-07-29T12:43:57.809Z,2.58
2022-07-29T12:46:26.181Z,2.50
2022-07-29T12:48:56.160Z,2.42
2022-07-29T12:51:38.978Z,2.47
2022-07-29T12:56:44.684Z,2.70
2022-07-29T12:59:24.024Z,2.72
2022-07-29T13:01:53.278Z,2.90
2022-07-29T13:04:37.649Z,2.15
2022-07-29T13:07:09.248Z,2.10
2022-07-29T13:09:43.938Z,2.17
2022-07-29T13:12:13.957Z,2.50
2022-07-29T13:14:44.754Z,2.03
2022-07-29T13:17:18.721Z,2.35
2022-07-29T13:20:09.865Z,2.25
2022-07-29T13:22:38.076Z,2.30
2022-07-29T13:25:07.700Z,1.85
2022-07-29T13:27:39.129Z,2.38
2022-07-29T13:30:10.514Z,1.90
2022-07-29T13:32:38.791Z,2.10
2022-07-29T13:35:09.389Z,2.30
2022-07-29T13:37:39.545Z,2.25
2022-07-29T13:40:09.656Z,2.30
2022-07-29T13:42:38.600Z,2.42
2022-07-29T13:45:07.785Z,1.65
2022-07-29T13:47:36.066Z,1.85
2022-07-29T13:50:06.260Z,1.90
2022-07-29T13:52:35.933Z,2.42
2022-07-29T13:55:04.712Z,2.50
2022-07-29T13:57:33.485Z,2.03
2022-07-29T14:00:01.223Z,2.67
2022-07-29T14:02:36.392Z,2.05
2022-07-29T14:05:08.402Z,2.05
2022-07-29T14:07:39.702Z,2.58
2022-07-29T14:10:08.502Z,2.50
2022-07-29T14:12:37.719Z,2.50
2022-07-29T14:15:06.067Z,2.40
2022-07-29T14:17:33.765Z,2.85
2022-07-29T14:20:02.385Z,3.00
2022-07-29T14:22:31.071Z,2.88
2022-07-29T14:24:59.669Z,2.80
2022-07-29T14:27:44.258Z,2.80
2022-07-29T14:30:12.985Z,2.45
2022-07-29T14:32:40.955Z,2.63
2022-07-29T14:35:09.183Z,2.92
2022-07-29T14:37:40.170Z,3.17
2022-07-29T14:40:11.378Z,2.70
2022-07-29T14:42:39.966Z,3.15
2022-07-29T14:45:10.670Z,2.80
2022-07-29T14:47:40.571Z,2.60
2022-07-29T14:50:09.279Z,2.80
2022-07-29T14:52:37.850Z,3.00
2022-07-29T14:55:19.476Z,3.00
2022-07-29T14:57:48.892Z,4.00
2022-07-29T15:00:18.045Z,3.22
2022-07-29T15:03:01.272Z,3.50
2022-07-29T15:05:32.254Z,2.67
2022-07-29T15:08:00.609Z,3.38
2022-07-29T15:10:28.462Z,3.33
2022-07-29T15:13:00.584Z,3.42
2022-07-29T15:15:29.001Z,2.90
2022-07-29T15:17:56.856Z,3.22
2022-07-29T15:20:26.853Z,3.38
2022-07-29T15:22:56.595Z,3.15
2022-07-29T15:25:25.632Z,3.58
2022-07-29T15:28:01.327Z,2.75
2022-07-29T15:30:33.600Z,3.67
2022-07-29T15:33:04.431Z,3.58
2022-07-29T15:35:33.223Z,4.05
2022-07-29T15:38:08.432Z,3.65
2022-07-29T15:40:39.213Z,3.78
2022-07-29T15:43:07.623Z,3.53
2022-07-29T15:45:40.875Z,4.30
2022-07-29T15:48:10.202Z,3.97
2022-07-29T15:50:42.880Z,3.05
2022-07-29T15:53:15.222Z,3.05
2022-07-29T15:55:44.554Z,3.38
2022-07-29T15:58:12.479Z,4.03
2022-07-29T16:00:40.384Z,3.90
2022-07-29T16:03:08.634Z,4.75
2022-07-29T16:05:36.668Z,3.97
2022-07-29T16:08:05.651Z,4.80
2022-07-29T16:10:33.826Z,5.35
2022-07-29T16:13:01.820Z,4.97
2022-07-29T16:15:29.607Z,4.93
2022-07-29T16:17:57.809Z,6.90
2022-07-29T16:20:25.561Z,6.50
2022-07-29T16:22:54.303Z,7.57
2022-07-29T16:25:38.372Z,6.75
2022-07-29T16:28:11.216Z,8.13
2022-07-29T16:30:39.467Z,8.18
2022-07-29T16:33:08.515Z,9.40
2022-07-29T16:35:40.170Z,10.20
2022-07-29T16:38:08.669Z,10.77
2022-07-29T16:40:36.475Z,12.43
2022-07-29T16:43:04.813Z,11.70
2022-07-29T16:45:45.171Z,11.02
2022-07-29T16:48:18.081Z,12.07
2022-07-29T16:50:47.305Z,12.93
2022-07-29T16:53:15.476Z,11.05
2022-07-29T16:55:43.316Z,10.48
2022-07-29T16:58:12.085Z,8.98
2022-07-29T17:00:40.217Z,10.35
2022-07-29T17:03:08.224Z,9.88
2022-07-29T17:05:50.794Z,9.27
2022-07-29T17:08:23.061Z,8.88
2022-07-29T17:10:51.346Z,8.98
2022-07-29T17:13:20.309Z,9.40
2022-07-29T17:15:48.649Z,9.93
2022-07-29T17:18:17.337Z,8.70
2022-07-29T17:20:46.698Z,7.70
2022-07-29T17:23:14.455Z,8.77
2022-07-29T17:25:42.231Z,8.45
2022-07-29T17:28:10.817Z,8.05
2022-07-29T17:30:38.599Z,6.95
2022-07-29T17:33:06.897Z,5.85
2022-07-29T17:35:53.576Z,5.15
2022-07-29T17:38:21.516Z,4.55
2022-07-29T17:40:49.741Z,4.65
2022-07-29T17:43:17.772Z,4.78
2022-07-29T17:45:50.028Z,5.00
2022-07-29T17:48:19.661Z,4.72
2022-07-29T17:50:48.630Z,4.80
2022-07-29T17:53:16.838Z,4.55
2022-07-29T17:55:47.635Z,4.78
2022-07-29T17:58:16.096Z,4.97
2022-07-29T18:00:44.671Z,4.25
2022-07-29T18:03:13.257Z,4.85
2022-07-29T18:05:41.763Z,5.22
2022-07-29T18:08:10.573Z,4.78
2022-07-29T18:10:38.508Z,4.30
2022-07-29T18:13:07.450Z,4.45
2022-07-29T18:15:35.696Z,4.75
2022-07-29T18:18:03.536Z,4.88
2022-07-29T18:20:32.619Z,4.32
2022-07-29T18:23:01.421Z,5.25
2022-07-29T18:25:29.729Z,5.05
2022-07-29T18:28:00.455Z,4.82
2022-07-29T18:30:29.635Z,5.00
2022-07-29T18:35:50.108Z,4.95
2022-07-29T18:38:18.135Z,5.18
2022-07-29T18:40:46.753Z,4.90
2022-07-29T18:43:15.002Z,5.47
2022-07-29T18:45:42.827Z,6.15
2022-07-29T18:48:13.144Z,5.50
2022-07-29T18:50:41.829Z,5.53
2022-07-29T18:53:10.130Z,6.00
2022-07-29T18:55:38.102Z,4.85
2022-07-29T18:58:05.894Z,4.88
2022-07-29T19:00:33.618Z,5.18
2022-07-29T19:03:03.270Z,4.68
2022-07-29T19:05:31.231Z,5.22
2022-07-29T19:07:59.161Z,6.03
2022-07-29T19:10:27.457Z,6.68
2022-07-29T19:12:56.885Z,7.18
2022-07-29T19:15:25.396Z,7.80
2022-07-29T19:18:00.855Z,8.95
2022-07-29T19:20:29.744Z,8.70
2022-07-29T19:22:58.620Z,8.90
2022-07-29T19:25:26.801Z,8.82
2022-07-29T19:27:54.725Z,8.27
2022-07-29T19:30:23.312Z,7.75
2022-07-29T19:32:51.543Z,9.02
2022-07-29T19:35:32.898Z,6.80
2022-07-29T19:38:02.532Z,7.13
2022-07-29T19:40:30.394Z,7.60
2022-07-29T19:42:58.340Z,8.80
2022-07-29T19:45:26.257Z,7.68
2022-07-29T19:47:59.123Z,9.27
2022-07-29T19:50:29.509Z,7.35
2022-07-29T19:52:57.905Z,8.68
2022-07-29T19:55:26.162Z,8.88
2022-07-29T19:57:54.474Z,8.90
2022-07-29T20:00:24.296Z,8.55
2022-07-29T20:02:52.926Z,8.10
2022-07-29T20:05:20.697Z,7.32
2022-07-29T20:07:48.428Z,7.05
2022-07-29T20:10:17.261Z,7.80
2022-07-29T20:12:45.083Z,6.38
2022-07-29T20:15:16.429Z,8.18
2022-07-29T20:17:44.739Z,8.15
2022-07-29T20:20:12.719Z,8.73
2022-07-29T20:22:41.006Z,8.50
2022-07-29T20:25:10.092Z,8.30
2022-07-29T20:27:40.713Z,7.68
2022-07-29T20:30:09.175Z,8.30
2022-07-29T20:32:39.985Z,7.93
2022-07-29T20:35:08.748Z,39.22
2022-07-29T20:37:52.393Z,8.60
2022-07-29T20:40:29.057Z,8.50
2022-07-29T20:42:56.701Z,8.10
2022-07-29T20:45:24.762Z,8.52
2022-07-29T20:47:53.045Z,9.52
2022-07-29T20:50:24.089Z,8.98
2022-07-29T20:52:53.101Z,11.63
2022-07-29T20:55:21.126Z,9.02
2022-07-29T20:57:48.740Z,9.88
2022-07-29T21:00:16.642Z,10.93
2022-07-29T21:02:44.518Z,10.27
2022-07-29T21:05:12.850Z,11.20
2022-07-29T21:07:41.260Z,11.50
2022-07-29T21:10:09.129Z,10.85
2022-07-29T21:12:37.437Z,10.38
2022-07-29T21:15:06.649Z,10.45
2022-07-29T21:17:36.196Z,8.60
2022-07-29T21:20:06.787Z,6.60
2022-07-29T21:22:34.462Z,7.55
2022-07-29T21:25:02.517Z,7.10
2022-07-29T21:27:48.614Z,7.82
2022-07-29T21:30:16.874Z,8.43
2022-07-29T21:32:44.901Z,7.68
2022-07-29T21:35:35.991Z,6.75
2022-07-29T21:38:00.657Z,6.85
2022-07-29T21:40:28.538Z,5.50
2022-07-29T21:42:56.819Z,5.40
2022-07-29T21:45:25.028Z,7.00
2022-07-29T21:47:53.121Z,4.72
2022-07-29T21:50:20.725Z,6.18
2022-07-29T21:52:48.591Z,5.82
2022-07-29T21:55:16.157Z,6.35
2022-07-29T21:57:46.690Z,7.18
2022-07-29T22:00:15.833Z,7.07
2022-07-29T22:02:43.743Z,8.27
2022-07-29T22:05:12.683Z,6.82
2022-07-29T22:07:55.855Z,7.15
2022-07-29T22:10:30.218Z,6.45
2022-07-29T22:12:59.466Z,6.63
2022-07-29T22:15:28.301Z,6.50
2022-07-29T22:17:56.529Z,5.40
2022-07-29T22:20:24.621Z,5.55
2022-07-29T22:22:52.775Z,5.40
2022-07-29T22:25:20.935Z,5.32
2022-07-29T22:27:49.636Z,5.82
2022-07-29T22:30:17.226Z,4.70
2022-07-29T22:32:44.894Z,5.20
2022-07-29T22:35:12.495Z,4.65
2022-07-29T22:37:40.119Z,4.55
2022-07-29T22:40:08.227Z,4.60
2022-07-29T22:42:36.388Z,4.13
2022-07-29T22:45:11.131Z,4.97
2022-07-29T22:47:48.450Z,4.68
2022-07-29T22:50:17.214Z,4.90
2022-07-29T22:52:46.374Z,4.50
2022-07-29T22:55:15.166Z,6.07
2022-07-29T22:57:43.878Z,5.05
2022-07-29T23:00:13.577Z,5.20
2022-07-29T23:02:41.667Z,4.82
2022-07-29T23:05:10.521Z,5.05
2022-07-29T23:07:38.228Z,5.32
2022-07-29T23:10:06.486Z,5.40
2022-07-29T23:12:34.775Z,4.88
2022-07-29T23:15:04.318Z,5.55
2022-07-29T23:17:36.102Z,5.85
2022-07-29T23:20:09.760Z,5.45
2022-07-29T23:22:37.650Z,5.72
2022-07-29T23:25:06.400Z,4.90
2022-07-29T23:27:33.953Z,5.03
2022-07-29T23:30:01.737Z,5.50
2022-07-29T23:32:29.467Z,4.95
2022-07-29T23:34:57.103Z,4.65
2022-07-29T23:37:26.966Z,5.75
2022-07-29T23:39:54.872Z,5.32
2022-07-29T23:42:22.642Z,4.28
2022-07-29T23:44:50.325Z,4.55
2022-07-29T23:47:18.596Z,4.63
2022-07-29T23:49:50.017Z,4.80
2022-07-29T23:52:18.638Z,4.25
2022-07-29T23:54:46.297Z,5.18
2022-07-29T23:57:14.392Z,4.15
2022-07-29T23:59:42.076Z,4.32
